Swiss Alp, Texas
Current Conditions -  °F | °C
As of 9:15 AM on Friday 31 Oct 2014 (Local Time) from K3T5 Reporting Station
Clear Clear  
Wind Chill: 64°   Ceiling: Unl
Heat Index: 64°   Visibility: 10mi
Dew Point: 55°   Wind: 6mph
Humidity: 71%   Direction: 10°N
Pressure: 30.21"   Gusts: NA
Location:  29.7125°N, 96.9231°W
Report Text: K3T5 311415Z AUTO 01005KT 10SM CLR 18/13 A3021 RMK AO2 T01800126
Loading
Personal Weather Stations






























Interactive Weather Map
Tropical Storm Tracking
New forecast layout! Learn more

10-Day Weather Forecast

Advertisements
Track Severe Weather on mobile